createdAt,value
2019-05-26T00:00:48.147Z,99.90
2019-05-26T00:03:18.492Z,99.90
2019-05-26T00:05:48.786Z,99.90
2019-05-26T00:08:19.296Z,99.90
2019-05-26T00:10:49.578Z,99.90
2019-05-26T00:13:20.191Z,99.90
2019-05-26T00:15:50.487Z,99.90
2019-05-26T00:18:20.764Z,99.90
2019-05-26T00:20:51.058Z,99.90
2019-05-26T00:23:21.335Z,99.90
2019-05-26T00:25:51.618Z,99.90
2019-05-26T00:28:21.903Z,99.90
2019-05-26T00:30:52.188Z,99.90
2019-05-26T00:33:22.522Z,99.90
2019-05-26T00:35:52.788Z,99.90
2019-05-26T00:38:23.067Z,99.90
2019-05-26T00:40:53.724Z,99.90
2019-05-26T00:43:24.354Z,99.90
2019-05-26T00:45:56.563Z,99.90
2019-05-26T00:48:27.107Z,99.90
2019-05-26T00:50:57.452Z,99.90
2019-05-26T00:53:27.817Z,99.90
2019-05-26T00:55:58.095Z,99.90
2019-05-26T00:58:28.387Z,99.90
2019-05-26T01:00:58.748Z,99.90
2019-05-26T01:03:29.107Z,99.90
2019-05-26T01:05:59.625Z,99.90
2019-05-26T01:08:30.155Z,99.90
2019-05-26T01:11:01.572Z,99.90
2019-05-26T01:13:32.391Z,99.90
2019-05-26T01:16:03.802Z,99.90
2019-05-26T01:18:35.321Z,99.90
2019-05-26T01:21:06.724Z,99.90
2019-05-26T01:23:37.009Z,99.90
2019-05-26T01:26:07.388Z,99.90
2019-05-26T01:28:37.674Z,99.90
2019-05-26T01:31:08.496Z,99.90
2019-05-26T01:33:38.770Z,99.90
2019-05-26T01:36:09.064Z,99.90
2019-05-26T01:38:40.554Z,99.90
2019-05-26T01:41:10.842Z,99.90
2019-05-26T01:43:41.358Z,99.90
2019-05-26T01:46:11.645Z,99.90
2019-05-26T01:48:42.006Z,99.90
2019-05-26T01:51:12.288Z,99.90
2019-05-26T01:53:42.585Z,99.90
2019-05-26T01:56:12.867Z,99.90
2019-05-26T01:58:43.168Z,99.90
2019-05-26T02:01:13.458Z,99.90
2019-05-26T02:03:44.097Z,99.90
2019-05-26T02:06:14.391Z,99.90
2019-05-26T02:08:44.670Z,99.90
2019-05-26T02:11:15.028Z,99.90
2019-05-26T02:13:45.318Z,99.90
2019-05-26T02:16:15.603Z,99.90
2019-05-26T02:18:45.898Z,99.90
2019-05-26T02:21:16.213Z,99.90
2019-05-26T02:23:46.492Z,99.90
2019-05-26T02:26:17.021Z,99.90
2019-05-26T02:28:47.301Z,99.90
2019-05-26T02:31:17.595Z,99.90
2019-05-26T02:33:47.884Z,99.90
2019-05-26T02:36:18.185Z,99.90
2019-05-26T02:39:00.909Z,99.90
2019-05-26T02:41:20.442Z,99.90
2019-05-26T02:43:50.806Z,99.90
2019-05-26T02:46:21.088Z,99.90
2019-05-26T02:48:51.369Z,99.90
2019-05-26T02:51:21.660Z,99.90
2019-05-26T02:53:51.954Z,99.90
2019-05-26T02:56:23.145Z,99.90
2019-05-26T02:58:53.435Z,99.90
2019-05-26T03:01:24.799Z,99.90
2019-05-26T03:03:55.150Z,99.90
2019-05-26T03:06:28.141Z,99.90
2019-05-26T03:09:21.246Z,99.90
2019-05-26T03:11:37.471Z,99.90
2019-05-26T03:14:10.743Z,99.90
2019-05-26T03:16:45.698Z,99.90
2019-05-26T03:19:18.935Z,99.90
2019-05-26T03:21:53.310Z,99.90
2019-05-26T03:24:28.829Z,99.90
2019-05-26T03:26:59.250Z,99.90
2019-05-26T03:29:29.539Z,99.90
2019-05-26T03:32:00.955Z,99.90
2019-05-26T03:34:31.249Z,99.90
2019-05-26T03:37:01.539Z,99.90
2019-05-26T03:39:44.552Z,99.90
2019-05-26T03:42:04.001Z,99.90
2019-05-26T03:44:34.248Z,99.90
2019-05-26T03:47:04.532Z,99.90
2019-05-26T03:49:34.818Z,99.90
2019-05-26T03:52:05.575Z,99.90
2019-05-26T03:54:35.850Z,99.90
2019-05-26T03:57:06.158Z,99.90
2019-05-26T03:59:36.451Z,99.90
2019-05-26T04:02:06.950Z,99.90
2019-05-26T04:04:37.232Z,99.90
2019-05-26T04:07:07.517Z,99.90
2019-05-26T04:09:37.799Z,99.90
2019-05-26T04:12:08.158Z,99.90
2019-05-26T04:14:38.466Z,99.90
2019-05-26T04:17:08.762Z,99.90
2019-05-26T04:19:39.025Z,99.90
2019-05-26T04:22:09.302Z,99.90
2019-05-26T04:24:42.097Z,99.90
2019-05-26T04:27:12.383Z,99.90
2019-05-26T04:29:42.684Z,99.90
2019-05-26T04:32:12.964Z,99.90
2019-05-26T04:34:43.265Z,99.90
2019-05-26T04:37:13.553Z,99.90
2019-05-26T04:39:43.857Z,99.90
2019-05-26T04:42:14.133Z,99.90
2019-05-26T04:44:44.426Z,99.90
2019-05-26T04:47:14.719Z,99.90
2019-05-26T04:49:45.003Z,99.90
2019-05-26T04:52:15.364Z,99.90
2019-05-26T04:54:45.654Z,99.90
2019-05-26T04:57:15.974Z,99.90
2019-05-26T04:59:46.262Z,99.90
2019-05-26T05:02:16.782Z,99.90
2019-05-26T05:04:47.080Z,99.90
2019-05-26T05:07:17.407Z,99.90
2019-05-26T05:09:47.699Z,99.90
2019-05-26T05:12:18.193Z,99.90
2019-05-26T05:14:48.471Z,99.90
2019-05-26T05:17:18.978Z,99.90
2019-05-26T05:19:49.515Z,99.90
2019-05-26T05:22:19.795Z,99.90
2019-05-26T05:24:50.088Z,99.90
2019-05-26T05:27:20.380Z,99.90
2019-05-26T05:29:50.667Z,99.90
2019-05-26T05:32:20.963Z,99.90
2019-05-26T05:34:51.256Z,99.90
2019-05-26T05:37:25.084Z,99.90
2019-05-26T05:39:53.597Z,99.90
2019-05-26T05:42:24.761Z,99.90
2019-05-26T05:44:55.053Z,99.90
2019-05-26T05:47:25.642Z,99.90
2019-05-26T05:49:55.921Z,99.90
2019-05-26T05:52:26.291Z,99.90
2019-05-26T05:54:56.559Z,99.90
2019-05-26T05:57:26.856Z,99.90
2019-05-26T05:59:57.137Z,99.90
2019-05-26T06:02:27.427Z,99.90
2019-05-26T06:04:57.710Z,99.90
2019-05-26T06:07:28.015Z,99.90
2019-05-26T06:09:58.313Z,99.90
2019-05-26T06:12:28.614Z,99.90
2019-05-26T06:14:58.900Z,99.90
2019-05-26T06:17:29.227Z,99.90
2019-05-26T06:19:59.538Z,99.90
2019-05-26T06:22:30.083Z,99.90
2019-05-26T06:25:00.357Z,99.90
2019-05-26T06:27:30.636Z,99.90
2019-05-26T06:30:00.953Z,99.90
2019-05-26T06:32:31.229Z,99.90
2019-05-26T06:35:01.510Z,99.90
2019-05-26T06:37:31.790Z,99.90
2019-05-26T06:40:02.088Z,99.90
2019-05-26T06:42:32.352Z,99.90
2019-05-26T06:45:02.641Z,99.90
2019-05-26T06:47:32.913Z,99.90
2019-05-26T06:50:05.005Z,99.90
2019-05-26T06:52:35.378Z,99.90
2019-05-26T06:55:07.360Z,99.90
2019-05-26T06:57:37.714Z,99.90
2019-05-26T07:00:08.878Z,99.90
2019-05-26T07:02:42.338Z,99.90
2019-05-26T07:05:13.230Z,99.90
2019-05-26T07:07:43.545Z,99.90
2019-05-26T07:10:15.298Z,99.90
2019-05-26T07:12:45.587Z,99.90
2019-05-26T07:15:16.107Z,99.90
2019-05-26T07:17:46.464Z,99.90
2019-05-26T07:20:17.386Z,99.90
2019-05-26T07:22:47.963Z,99.90
2019-05-26T07:25:18.307Z,99.90
2019-05-26T07:27:48.629Z,99.90
2019-05-26T07:30:23.342Z,99.90
2019-05-26T07:32:51.626Z,99.90
2019-05-26T07:35:22.185Z,99.90
2019-05-26T07:37:52.478Z,99.90
2019-05-26T07:40:23.089Z,99.90
2019-05-26T07:42:53.383Z,99.90
2019-05-26T07:45:23.769Z,99.90
2019-05-26T07:47:54.064Z,99.90
2019-05-26T07:50:24.377Z,99.90
2019-05-26T07:52:54.732Z,99.90
2019-05-26T07:55:25.295Z,99.90
2019-05-26T07:57:55.943Z,99.90
2019-05-26T08:00:26.440Z,99.90
2019-05-26T08:02:56.994Z,99.90
2019-05-26T08:05:27.279Z,99.90
2019-05-26T08:08:11.463Z,99.90
2019-05-26T08:10:29.805Z,99.90
2019-05-26T08:13:00.101Z,99.90
2019-05-26T08:15:30.418Z,99.90
2019-05-26T08:18:00.982Z,99.70
2019-05-26T08:20:31.259Z,98.60
2019-05-26T08:23:01.544Z,99.50
2019-05-26T08:25:31.821Z,98.80
2019-05-26T08:28:02.114Z,98.80
2019-05-26T08:30:32.422Z,97.70
2019-05-26T08:33:02.761Z,97.70
2019-05-26T08:35:36.472Z,97.50
2019-05-26T08:38:06.810Z,97.00
2019-05-26T08:40:37.151Z,97.50
2019-05-26T08:43:07.445Z,97.30
2019-05-26T08:45:37.728Z,96.10
2019-05-26T08:48:08.006Z,97.10
2019-05-26T08:50:38.493Z,96.60
2019-05-26T08:53:08.783Z,95.90
2019-05-26T08:55:39.063Z,96.20
2019-05-26T08:58:09.352Z,96.10
2019-05-26T09:00:39.978Z,96.30
2019-05-26T09:03:10.256Z,96.40
2019-05-26T09:05:40.539Z,95.80
2019-05-26T09:08:10.817Z,95.80
2019-05-26T09:10:41.102Z,95.80
2019-05-26T09:13:11.609Z,95.90
2019-05-26T09:15:43.628Z,95.00
2019-05-26T09:18:14.203Z,94.80
2019-05-26T09:20:44.490Z,94.50
2019-05-26T09:23:14.763Z,94.60
2019-05-26T09:25:46.661Z,93.80
2019-05-26T09:28:17.112Z,93.60
2019-05-26T09:30:47.433Z,94.40
2019-05-26T09:33:17.990Z,93.80
2019-05-26T09:35:48.619Z,93.50
2019-05-26T09:38:19.704Z,93.50
2019-05-26T09:40:49.985Z,94.60
2019-05-26T09:43:20.512Z,94.10
2019-05-26T09:45:50.785Z,93.40
2019-05-26T09:48:21.090Z,94.30
2019-05-26T09:50:51.693Z,93.30
2019-05-26T09:53:21.976Z,93.80
2019-05-26T09:55:52.256Z,92.30
2019-05-26T09:58:22.530Z,92.90
2019-05-26T10:00:52.834Z,93.10
2019-05-26T10:03:23.108Z,92.40
2019-05-26T10:05:53.395Z,92.40
2019-05-26T10:08:23.682Z,92.80
2019-05-26T10:10:53.955Z,91.70
2019-05-26T10:13:31.704Z,91.50
2019-05-26T10:15:56.472Z,91.60
2019-05-26T10:18:26.748Z,90.30
2019-05-26T10:20:57.119Z,90.30
2019-05-26T10:23:27.426Z,90.00
2019-05-26T10:25:57.705Z,90.10
2019-05-26T10:28:27.982Z,89.20
2019-05-26T10:30:58.257Z,89.00
2019-05-26T10:33:28.537Z,90.00
2019-05-26T10:35:58.813Z,90.10
2019-05-26T10:38:29.100Z,84.10
2019-05-26T10:40:59.377Z,84.90
2019-05-26T10:43:29.656Z,78.80
2019-05-26T10:46:00.413Z,82.10
2019-05-26T10:48:30.686Z,82.90
2019-05-26T10:51:00.970Z,82.40
2019-05-26T10:53:31.262Z,83.20
2019-05-26T10:56:01.544Z,79.10
2019-05-26T10:58:32.089Z,82.50
2019-05-26T11:01:02.542Z,83.70
2019-05-26T11:03:33.921Z,81.20
2019-05-26T11:06:04.817Z,81.00
2019-05-26T11:08:35.110Z,81.60
2019-05-26T11:11:05.463Z,83.50
2019-05-26T11:13:35.746Z,82.00
2019-05-26T11:16:06.158Z,81.60
2019-05-26T11:18:36.440Z,78.70
2019-05-26T11:21:06.869Z,82.00
2019-05-26T11:23:37.151Z,80.60
2019-05-26T11:26:07.441Z,77.30
2019-05-26T11:28:37.713Z,78.20
2019-05-26T11:31:08.013Z,77.00
2019-05-26T11:33:38.289Z,77.90
2019-05-26T11:36:08.589Z,76.70
2019-05-26T11:38:38.873Z,75.60
2019-05-26T11:41:09.376Z,74.70
2019-05-26T11:43:39.827Z,72.10
2019-05-26T11:46:10.944Z,71.30
2019-05-26T11:48:41.260Z,68.60
2019-05-26T11:51:11.533Z,67.80
2019-05-26T11:53:41.819Z,66.80
2019-05-26T11:56:12.088Z,68.60
2019-05-26T11:58:43.384Z,62.20
2019-05-26T12:01:13.662Z,60.70
2019-05-26T12:03:43.945Z,60.00
2019-05-26T12:06:14.229Z,58.30
2019-05-26T12:08:44.763Z,58.30
2019-05-26T12:11:15.042Z,58.40
2019-05-26T12:13:45.313Z,58.20
2019-05-26T12:16:16.575Z,56.40
2019-05-26T12:18:46.849Z,57.20
2019-05-26T12:21:17.173Z,59.40
2019-05-26T12:23:47.735Z,57.70
2019-05-26T12:26:18.034Z,57.70
2019-05-26T12:28:48.312Z,56.40
2019-05-26T12:31:18.594Z,57.80
2019-05-26T12:33:48.866Z,58.80
2019-05-26T12:36:19.151Z,59.90
2019-05-26T12:38:52.184Z,61.20
2019-05-26T12:41:23.077Z,58.30
2019-05-26T12:43:53.359Z,58.70
2019-05-26T12:46:23.634Z,60.10
2019-05-26T12:48:53.909Z,60.70
2019-05-26T12:51:24.188Z,60.00
2019-05-26T12:53:54.550Z,57.80
2019-05-26T12:56:24.824Z,57.40
2019-05-26T12:58:55.177Z,58.20
2019-05-26T13:01:25.978Z,54.00
2019-05-26T13:03:56.262Z,52.50
2019-05-26T13:06:26.563Z,56.60
2019-05-26T13:08:56.882Z,56.60
2019-05-26T13:11:27.159Z,55.00
2019-05-26T13:13:57.920Z,57.80
2019-05-26T13:16:29.308Z,58.50
2019-05-26T13:18:59.830Z,56.80
2019-05-26T13:21:30.109Z,55.40
2019-05-26T13:24:00.396Z,56.30
2019-05-26T13:26:30.679Z,57.40
2019-05-26T13:29:00.974Z,59.70
2019-05-26T13:31:31.264Z,58.60
2019-05-26T13:34:01.548Z,57.90
2019-05-26T13:36:31.860Z,57.30
2019-05-26T13:39:02.132Z,56.80
2019-05-26T13:41:32.418Z,54.70
2019-05-26T13:44:02.695Z,55.30
2019-05-26T13:46:32.979Z,54.00
2019-05-26T13:49:03.262Z,52.80
2019-05-26T13:51:33.554Z,55.70
2019-05-26T13:54:03.900Z,53.00
2019-05-26T13:56:34.579Z,51.50
2019-05-26T13:59:04.939Z,52.10
2019-05-26T14:01:35.228Z,54.20
2019-05-26T14:04:06.112Z,52.10
2019-05-26T14:06:36.887Z,50.60
2019-05-26T14:09:09.862Z,51.20
2019-05-26T14:11:40.500Z,51.20
2019-05-26T14:14:10.801Z,50.10
2019-05-26T14:16:43.564Z,49.70
2019-05-26T14:19:15.648Z,51.00
2019-05-26T14:21:45.929Z,49.70
2019-05-26T14:24:16.203Z,51.30
2019-05-26T14:26:46.495Z,50.60
2019-05-26T14:29:16.767Z,50.30
2019-05-26T14:31:47.049Z,50.50
2019-05-26T14:34:17.616Z,51.90
2019-05-26T14:36:47.970Z,52.70
2019-05-26T14:39:18.254Z,53.20
2019-05-26T14:41:48.795Z,52.60
2019-05-26T14:44:19.070Z,51.80
2019-05-26T14:46:49.575Z,52.90
2019-05-26T14:49:20.807Z,53.50
2019-05-26T14:51:52.218Z,52.60
2019-05-26T14:54:22.494Z,51.60
2019-05-26T14:56:52.785Z,53.70
2019-05-26T14:59:23.336Z,51.50
2019-05-26T15:01:53.642Z,50.00
2019-05-26T15:04:23.891Z,51.20
2019-05-26T15:06:54.183Z,51.20
2019-05-26T15:09:25.542Z,49.60
2019-05-26T15:11:55.920Z,49.70
2019-05-26T15:14:26.491Z,49.40
2019-05-26T15:16:56.774Z,49.50
2019-05-26T15:19:27.056Z,49.80
2019-05-26T15:21:57.327Z,50.20
2019-05-26T15:24:27.729Z,50.00
2019-05-26T15:26:58.008Z,50.30
2019-05-26T15:29:28.276Z,50.20
2019-05-26T15:31:58.569Z,50.10
2019-05-26T15:34:29.435Z,49.40
2019-05-26T15:36:59.705Z,50.80
2019-05-26T15:39:29.996Z,50.50
2019-05-26T15:42:00.360Z,50.80
2019-05-26T15:44:30.859Z,51.70
2019-05-26T15:47:01.130Z,51.10
2019-05-26T15:49:31.424Z,52.10
2019-05-26T15:52:01.690Z,51.90
2019-05-26T15:54:31.974Z,51.80
2019-05-26T15:57:02.247Z,52.00
2019-05-26T15:59:32.539Z,51.00
2019-05-26T16:02:02.813Z,49.60
2019-05-26T16:04:33.093Z,50.30
2019-05-26T16:07:03.489Z,50.70
2019-05-26T16:09:33.787Z,51.10
2019-05-26T16:12:04.131Z,52.50
2019-05-26T16:14:34.647Z,52.00
2019-05-26T16:17:05.129Z,51.40
2019-05-26T16:19:35.476Z,50.90
2019-05-26T16:22:05.900Z,51.80
2019-05-26T16:24:36.182Z,51.60
2019-05-26T16:27:18.585Z,51.30
2019-05-26T16:29:38.665Z,51.80
2019-05-26T16:32:09.104Z,53.10
2019-05-26T16:34:39.384Z,54.30
2019-05-26T16:37:09.678Z,53.40
2019-05-26T16:39:39.953Z,53.10
2019-05-26T16:42:10.477Z,53.80
2019-05-26T16:44:40.747Z,53.90
2019-05-26T16:47:11.030Z,54.50
2019-05-26T16:49:41.328Z,53.60
2019-05-26T16:52:11.589Z,53.30
2019-05-26T16:54:41.872Z,53.80
2019-05-26T16:57:12.165Z,54.80
2019-05-26T16:59:43.474Z,55.10
2019-05-26T17:02:13.861Z,55.10
2019-05-26T17:04:44.153Z,56.50
2019-05-26T17:07:14.444Z,57.60
2019-05-26T17:09:44.730Z,57.30
2019-05-26T17:12:15.006Z,58.20
2019-05-26T17:14:45.280Z,58.10
2019-05-26T17:17:15.584Z,58.60
2019-05-26T17:19:45.858Z,59.20
2019-05-26T17:22:16.147Z,60.40
2019-05-26T17:24:46.443Z,60.80
2019-05-26T17:27:16.738Z,61.80
2019-05-26T17:29:47.327Z,62.30
2019-05-26T17:32:17.579Z,63.20
2019-05-26T17:34:47.854Z,64.10
2019-05-26T17:37:18.139Z,65.90
2019-05-26T17:39:49.021Z,66.50
2019-05-26T17:42:20.658Z,65.90
2019-05-26T17:44:50.940Z,66.60
2019-05-26T17:47:29.926Z,66.80
2019-05-26T17:49:53.194Z,65.70
2019-05-26T17:52:23.501Z,66.40
2019-05-26T17:54:53.773Z,66.50
2019-05-26T17:57:24.058Z,66.00
2019-05-26T17:59:54.340Z,65.40
2019-05-26T18:02:24.652Z,66.10
2019-05-26T18:04:54.941Z,66.50
2019-05-26T18:07:25.213Z,66.40
2019-05-26T18:09:55.765Z,65.80
2019-05-26T18:12:26.034Z,65.40
2019-05-26T18:14:56.326Z,66.50
2019-05-26T18:17:26.593Z,66.70
2019-05-26T18:19:56.875Z,68.10
2019-05-26T18:22:27.151Z,68.90
2019-05-26T18:24:59.088Z,70.00
2019-05-26T18:27:30.213Z,70.60
2019-05-26T18:30:00.505Z,72.70
2019-05-26T18:32:30.779Z,73.30
2019-05-26T18:35:01.073Z,74.10
2019-05-26T18:37:31.518Z,74.60
2019-05-26T18:40:01.971Z,75.60
2019-05-26T18:42:32.269Z,76.20
2019-05-26T18:45:02.547Z,76.90
2019-05-26T18:47:32.994Z,80.70
2019-05-26T18:50:03.706Z,82.30
2019-05-26T18:52:34.057Z,84.10
2019-05-26T18:55:05.272Z,84.30
2019-05-26T18:57:35.565Z,84.50
2019-05-26T19:00:10.981Z,85.50
2019-05-26T19:02:41.260Z,86.30
2019-05-26T19:05:11.858Z,87.00
2019-05-26T19:07:42.138Z,87.20
2019-05-26T19:10:14.698Z,87.40
2019-05-26T19:12:44.978Z,87.60
2019-05-26T19:15:15.665Z,88.30
2019-05-26T19:17:45.951Z,88.40
2019-05-26T19:20:17.464Z,88.80
2019-05-26T19:22:47.818Z,88.70
2019-05-26T19:25:18.148Z,89.30
2019-05-26T19:27:48.899Z,89.50
2019-05-26T19:30:19.822Z,89.60
2019-05-26T19:32:50.487Z,89.80
2019-05-26T19:35:20.866Z,89.70
2019-05-26T19:37:51.135Z,90.00
2019-05-26T19:40:21.440Z,90.20
2019-05-26T19:42:51.710Z,90.40
2019-05-26T19:45:21.998Z,90.40
2019-05-26T19:47:52.278Z,90.50
2019-05-26T19:50:22.556Z,90.90
2019-05-26T19:52:53.097Z,90.80
2019-05-26T19:55:23.764Z,90.90
2019-05-26T19:57:54.056Z,91.00
2019-05-26T20:00:25.027Z,91.20
2019-05-26T20:02:55.626Z,91.30
2019-05-26T20:05:25.915Z,91.50
2019-05-26T20:07:57.615Z,91.70
2019-05-26T20:10:29.249Z,91.90
2019-05-26T20:12:59.533Z,92.00
2019-05-26T20:15:29.820Z,92.30
2019-05-26T20:18:00.104Z,92.30
2019-05-26T20:20:30.381Z,92.40
2019-05-26T20:23:00.659Z,92.90
2019-05-26T20:25:30.930Z,93.70
2019-05-26T20:28:01.217Z,93.50
2019-05-26T20:30:31.492Z,93.50
2019-05-26T20:33:01.843Z,93.70
2019-05-26T20:35:32.126Z,93.90
2019-05-26T20:38:02.399Z,94.10
2019-05-26T20:40:32.674Z,94.20
2019-05-26T20:43:03.275Z,94.90
2019-05-26T20:45:33.565Z,94.90
2019-05-26T20:48:03.852Z,94.90
2019-05-26T20:50:35.507Z,95.30
2019-05-26T20:53:06.932Z,95.80
2019-05-26T20:55:37.224Z,95.70
2019-05-26T20:58:07.507Z,95.80
2019-05-26T21:00:38.104Z,96.00
2019-05-26T21:03:08.384Z,96.20
2019-05-26T21:05:38.655Z,96.50
2019-05-26T21:08:08.932Z,96.50
2019-05-26T21:10:39.625Z,96.60
2019-05-26T21:13:10.013Z,96.90
2019-05-26T21:15:40.282Z,97.00
2019-05-26T21:18:10.564Z,97.30
2019-05-26T21:20:40.840Z,97.70
2019-05-26T21:23:11.126Z,98.00
2019-05-26T21:25:41.397Z,98.00
2019-05-26T21:28:11.694Z,98.20
2019-05-26T21:30:42.192Z,98.40
2019-05-26T21:33:12.470Z,98.50
2019-05-26T21:35:42.767Z,98.80
2019-05-26T21:38:13.036Z,99.20
2019-05-26T21:40:43.325Z,99.30
2019-05-26T21:43:13.611Z,99.20
2019-05-26T21:45:43.911Z,99.40
2019-05-26T21:48:14.193Z,99.70
2019-05-26T21:50:44.469Z,99.80
2019-05-26T21:53:14.754Z,99.90
2019-05-26T21:55:45.256Z,99.90
2019-05-26T21:58:15.557Z,99.80
2019-05-26T22:00:48.915Z,99.90
2019-05-26T22:03:19.263Z,99.90
2019-05-26T22:05:50.039Z,99.90
2019-05-26T22:08:21.872Z,99.90
2019-05-26T22:10:52.148Z,99.90
2019-05-26T22:13:22.434Z,99.90
2019-05-26T22:15:52.703Z,99.90
2019-05-26T22:18:22.993Z,99.90
2019-05-26T22:20:54.049Z,99.90
2019-05-26T22:23:24.333Z,99.90
2019-05-26T22:25:54.645Z,99.90
2019-05-26T22:28:24.925Z,99.90
2019-05-26T22:30:55.203Z,99.90
2019-05-26T22:33:25.535Z,99.90
2019-05-26T22:35:56.071Z,99.90
2019-05-26T22:38:26.360Z,99.90
2019-05-26T22:40:57.410Z,99.90
2019-05-26T22:43:27.714Z,99.90
2019-05-26T22:45:58.004Z,99.90
2019-05-26T22:48:28.344Z,99.90
2019-05-26T22:50:58.694Z,99.90
2019-05-26T22:53:29.004Z,99.90
2019-05-26T22:55:59.343Z,99.90
2019-05-26T22:58:29.622Z,99.90
2019-05-26T23:00:59.912Z,99.90
2019-05-26T23:03:31.247Z,99.90
2019-05-26T23:06:02.720Z,99.90
2019-05-26T23:08:32.952Z,99.90
2019-05-26T23:11:03.231Z,99.90
2019-05-26T23:13:33.507Z,99.90
2019-05-26T23:16:03.798Z,99.90
2019-05-26T23:18:34.358Z,99.90
2019-05-26T23:21:04.641Z,99.90
2019-05-26T23:23:34.924Z,99.90
2019-05-26T23:26:05.211Z,99.90
2019-05-26T23:28:35.501Z,99.90
2019-05-26T23:31:05.860Z,99.90
2019-05-26T23:33:36.157Z,99.90
2019-05-26T23:36:06.414Z,99.90
2019-05-26T23:38:36.700Z,99.90
2019-05-26T23:41:06.982Z,99.90
2019-05-26T23:43:37.258Z,99.90
2019-05-26T23:46:08.069Z,99.90
2019-05-26T23:48:38.360Z,99.90
2019-05-26T23:51:08.636Z,99.90
2019-05-26T23:53:38.933Z,99.90
2019-05-26T23:56:09.287Z,99.90
2019-05-26T23:58:39.569Z,99.90
